sensor_id;sensor_type;location;lat;lon;timestamp;pressure;altitude;pressure_sealevel;temperature;humidity
75425;BME280;64007;50.632;13.700;2023-07-30T00:01:55;97484.22;;;14.52;100.00
75425;BME280;64007;50.632;13.700;2023-07-30T00:04:21;97485.06;;;14.52;100.00
75425;BME280;64007;50.632;13.700;2023-07-30T00:06:46;97483.22;;;14.53;100.00
75425;BME280;64007;50.632;13.700;2023-07-30T00:09:12;97483.88;;;14.55;100.00
75425;BME280;64007;50.632;13.700;2023-07-30T00:11:38;97479.22;;;14.57;100.00
75425;BME280;64007;50.632;13.700;2023-07-30T00:14:04;97482.22;;;14.62;100.00
75425;BME280;64007;50.632;13.700;2023-07-30T00:16:29;97481.91;;;14.65;100.00
75425;BME280;64007;50.632;13.700;2023-07-30T00:18:55;97476.91;;;14.70;100.00
75425;BME280;64007;50.632;13.700;2023-07-30T00:21:22;97474.25;;;14.78;100.00
75425;BME280;64007;50.632;13.700;2023-07-30T00:23:48;97476.47;;;14.83;100.00
75425;BME280;64007;50.632;13.700;2023-07-30T00:26:14;97471.56;;;14.78;100.00
75425;BME280;64007;50.632;13.700;2023-07-30T00:28:40;97472.94;;;14.82;100.00
75425;BME280;64007;50.632;13.700;2023-07-30T00:31:06;97469.56;;;14.80;100.00
75425;BME280;64007;50.632;13.700;2023-07-30T00:33:31;97472.94;;;14.82;100.00
75425;BME280;64007;50.632;13.700;2023-07-30T00:35:57;97479.44;;;14.80;100.00
75425;BME280;64007;50.632;13.700;2023-07-30T00:38:23;97479.63;;;14.86;100.00
75425;BME280;64007;50.632;13.700;2023-07-30T00:40:49;97481.28;;;14.79;100.00
75425;BME280;64007;50.632;13.700;2023-07-30T00:43:14;97462.19;;;14.74;100.00
75425;BME280;64007;50.632;13.700;2023-07-30T00:45:43;97456.00;;;14.73;100.00
75425;BME280;64007;50.632;13.700;2023-07-30T00:48:10;97447.13;;;14.73;100.00
75425;BME280;64007;50.632;13.700;2023-07-30T00:50:36;97457.50;;;14.76;100.00
75425;BME280;64007;50.632;13.700;2023-07-30T00:53:04;97454.84;;;14.76;100.00
75425;BME280;64007;50.632;13.700;2023-07-30T00:55:30;97450.31;;;14.77;100.00
75425;BME280;64007;50.632;13.700;2023-07-30T00:57:56;97454.53;;;14.87;100.00
75425;BME280;64007;50.632;13.700;2023-07-30T01:00:23;97459.41;;;15.00;100.00
75425;BME280;64007;50.632;13.700;2023-07-30T01:02:51;97452.72;;;14.88;100.00
75425;BME280;64007;50.632;13.700;2023-07-30T01:05:16;97453.16;;;14.75;100.00
75425;BME280;64007;50.632;13.700;2023-07-30T01:07:42;97456.00;;;14.73;100.00
75425;BME280;64007;50.632;13.700;2023-07-30T01:10:08;97461.25;;;14.91;100.00
75425;BME280;64007;50.632;13.700;2023-07-30T01:12:35;97455.00;;;14.74;100.00
75425;BME280;64007;50.632;13.700;2023-07-30T01:15:01;97454.47;;;14.63;100.00
75425;BME280;64007;50.632;13.700;2023-07-30T01:17:27;97462.84;;;14.60;100.00
75425;BME280;64007;50.632;13.700;2023-07-30T01:19:53;97460.47;;;14.57;100.00
75425;BME280;64007;50.632;13.700;2023-07-30T01:22:22;97470.03;;;14.59;100.00
75425;BME280;64007;50.632;13.700;2023-07-30T01:24:49;97470.84;;;14.60;100.00
75425;BME280;64007;50.632;13.700;2023-07-30T01:27:35;97470.53;;;14.63;100.00
75425;BME280;64007;50.632;13.700;2023-07-30T01:32:40;97471.84;;;14.59;100.00
75425;BME280;64007;50.632;13.700;2023-07-30T01:35:07;97483.06;;;14.62;100.00
75425;BME280;64007;50.632;13.700;2023-07-30T01:37:34;97476.22;;;14.60;100.00
75425;BME280;64007;50.632;13.700;2023-07-30T01:40:01;97475.38;;;14.59;100.00
75425;BME280;64007;50.632;13.700;2023-07-30T01:42:28;97474.22;;;14.62;100.00
75425;BME280;64007;50.632;13.700;2023-07-30T01:44:54;97479.22;;;14.65;100.00
75425;BME280;64007;50.632;13.700;2023-07-30T01:47:20;97474.53;;;14.59;100.00
75425;BME280;64007;50.632;13.700;2023-07-30T01:49:46;97474.03;;;14.55;100.00
75425;BME280;64007;50.632;13.700;2023-07-30T01:52:11;97473.19;;;14.55;100.00
75425;BME280;64007;50.632;13.700;2023-07-30T01:54:37;97479.22;;;14.57;100.00
75425;BME280;64007;50.632;13.700;2023-07-30T01:57:03;97479.69;;;14.52;100.00
75425;BME280;64007;50.632;13.700;2023-07-30T01:59:29;97480.03;;;14.49;100.00
75425;BME280;64007;50.632;13.700;2023-07-30T02:01:55;97468.50;;;14.49;100.00
75425;BME280;64007;50.632;13.700;2023-07-30T02:04:20;97467.97;;;14.45;100.00
75425;BME280;64007;50.632;13.700;2023-07-30T02:06:46;97467.44;;;14.41;100.00
75425;BME280;64007;50.632;13.700;2023-07-30T02:09:11;97460.63;;;14.47;100.00
75425;BME280;64007;50.632;13.700;2023-07-30T02:11:37;97468.13;;;14.44;100.00
75425;BME280;64007;50.632;13.700;2023-07-30T02:14:03;97466.72;;;14.39;100.00
75425;BME280;64007;50.632;13.700;2023-07-30T02:16:28;97459.66;;;14.30;100.00
75425;BME280;64007;50.632;13.700;2023-07-30T02:18:54;97464.84;;;14.32;100.00
75425;BME280;64007;50.632;13.700;2023-07-30T02:21:20;97465.03;;;14.30;100.00
75425;BME280;64007;50.632;13.700;2023-07-30T02:23:45;97463.16;;;14.23;100.00
75425;BME280;64007;50.632;13.700;2023-07-30T02:26:11;97463.63;;;14.18;100.00
75425;BME280;64007;50.632;13.700;2023-07-30T02:28:37;97470.66;;;14.19;100.00
75425;BME280;64007;50.632;13.700;2023-07-30T02:31:02;97477.00;;;14.18;100.00
75425;BME280;64007;50.632;13.700;2023-07-30T02:33:28;97494.72;;;14.19;100.00
75425;BME280;64007;50.632;13.700;2023-07-30T02:35:54;97488.03;;;14.15;100.00
75425;BME280;64007;50.632;13.700;2023-07-30T02:38:19;97491.84;;;14.13;100.00
75425;BME280;64007;50.632;13.700;2023-07-30T02:40:45;97491.69;;;14.14;100.00
75425;BME280;64007;50.632;13.700;2023-07-30T02:43:11;97489.34;;;14.11;100.00
75425;BME280;64007;50.632;13.700;2023-07-30T02:45:38;97481.31;;;14.11;100.00
75425;BME280;64007;50.632;13.700;2023-07-30T02:48:04;97486.34;;;14.14;100.00
75425;BME280;64007;50.632;13.700;2023-07-30T02:50:30;97491.53;;;14.16;100.00
75425;BME280;64007;50.632;13.700;2023-07-30T02:52:55;97491.06;;;14.20;100.00
75425;BME280;64007;50.632;13.700;2023-07-30T02:55:21;97488.53;;;14.19;100.00
75425;BME280;64007;50.632;13.700;2023-07-30T02:57:46;97494.06;;;14.17;100.00
75425;BME280;64007;50.632;13.700;2023-07-30T03:00:12;97483.50;;;14.16;100.00
75425;BME280;64007;50.632;13.700;2023-07-30T03:02:39;97482.69;;;14.15;100.00
75425;BME280;64007;50.632;13.700;2023-07-30T03:05:05;97472.66;;;14.17;100.00
75425;BME280;64007;50.632;13.700;2023-07-30T03:07:31;97466.31;;;14.18;100.00
75425;BME280;64007;50.632;13.700;2023-07-30T03:09:57;97469.97;;;14.17;100.00
75425;BME280;64007;50.632;13.700;2023-07-30T03:12:22;97469.31;;;14.15;100.00
75425;BME280;64007;50.632;13.700;2023-07-30T03:14:49;97474.84;;;14.22;100.00
75425;BME280;64007;50.632;13.700;2023-07-30T03:17:14;97473.34;;;14.19;100.00
75425;BME280;64007;50.632;13.700;2023-07-30T03:19:40;97475.66;;;14.14;100.00
75425;BME280;64007;50.632;13.700;2023-07-30T03:22:05;97478.97;;;14.08;100.00
75425;BME280;64007;50.632;13.700;2023-07-30T03:24:31;97473.97;;;14.13;100.00
75425;BME280;64007;50.632;13.700;2023-07-30T03:26:57;97475.97;;;14.11;100.00
75425;BME280;64007;50.632;13.700;2023-07-30T03:29:23;97468.94;;;14.10;100.00
75425;BME280;64007;50.632;13.700;2023-07-30T03:31:48;97472.94;;;14.06;100.00
75425;BME280;64007;50.632;13.700;2023-07-30T03:34:14;97471.25;;;14.05;100.00
75425;BME280;64007;50.632;13.700;2023-07-30T03:36:40;97473.94;;;14.05;100.00
75425;BME280;64007;50.632;13.700;2023-07-30T03:39:05;97466.91;;;14.04;100.00
75425;BME280;64007;50.632;13.700;2023-07-30T03:41:31;97464.56;;;14.01;100.00
75425;BME280;64007;50.632;13.700;2023-07-30T03:43:57;97464.94;;;14.06;100.00
75425;BME280;64007;50.632;13.700;2023-07-30T03:46:22;97468.94;;;14.10;100.00
75425;BME280;64007;50.632;13.700;2023-07-30T03:48:48;97474.66;;;14.15;100.00
75425;BME280;64007;50.632;13.700;2023-07-30T03:51:14;97481.00;;;14.14;100.00
75425;BME280;64007;50.632;13.700;2023-07-30T03:53:40;97479.31;;;14.13;100.00
75425;BME280;64007;50.632;13.700;2023-07-30T03:56:05;97484.88;;;14.20;100.00
75425;BME280;64007;50.632;13.700;2023-07-30T03:58:31;97482.56;;;14.25;100.00
75425;BME280;64007;50.632;13.700;2023-07-30T04:00:57;97484.75;;;14.29;100.00
75425;BME280;64007;50.632;13.700;2023-07-30T04:03:22;97485.94;;;14.35;100.00
75425;BME280;64007;50.632;13.700;2023-07-30T04:05:48;97486.59;;;14.37;100.00
75425;BME280;64007;50.632;13.700;2023-07-30T04:08:15;97483.63;;;14.40;100.00
75425;BME280;64007;50.632;13.700;2023-07-30T04:10:41;97488.53;;;14.45;100.00
75425;BME280;64007;50.632;13.700;2023-07-30T04:13:07;97473.16;;;14.47;100.00
75425;BME280;64007;50.632;13.700;2023-07-30T04:15:33;97484.22;;;14.52;100.00
75425;BME280;64007;50.632;13.700;2023-07-30T04:17:59;97476.88;;;14.54;100.00
75425;BME280;64007;50.632;13.700;2023-07-30T04:20:25;97467.19;;;14.61;100.00
75425;BME280;64007;50.632;13.700;2023-07-30T04:22:51;97472.22;;;14.64;100.00
75425;BME280;64007;50.632;13.700;2023-07-30T04:25:17;97482.59;;;14.67;100.00
75425;BME280;64007;50.632;13.700;2023-07-30T04:27:43;97483.94;;;14.71;100.00
75425;BME280;64007;50.632;13.700;2023-07-30T04:30:08;97485.59;;;14.72;100.00
75425;BME280;64007;50.632;13.700;2023-07-30T04:32:34;97481.59;;;14.76;100.00
75425;BME280;64007;50.632;13.700;2023-07-30T04:35:01;97479.75;;;14.77;100.00
75425;BME280;64007;50.632;13.700;2023-07-30T04:37:28;97484.50;;;14.83;100.00
75425;BME280;64007;50.632;13.700;2023-07-30T04:39:54;97486.84;;;14.86;100.00
75425;BME280;64007;50.632;13.700;2023-07-30T04:42:20;97481.66;;;14.92;100.00
75425;BME280;64007;50.632;13.700;2023-07-30T04:44:45;97484.69;;;14.97;100.00
75425;BME280;64007;50.632;13.700;2023-07-30T04:47:11;97494.72;;;15.03;100.00
75425;BME280;64007;50.632;13.700;2023-07-30T04:49:36;97494.72;;;15.20;100.00
75425;BME280;64007;50.632;13.700;2023-07-30T04:52:09;97512.19;;;15.32;100.00
75425;BME280;64007;50.632;13.700;2023-07-30T04:54:34;97513.53;;;15.36;100.00
75425;BME280;64007;50.632;13.700;2023-07-30T04:57:02;97511.19;;;15.41;100.00
75425;BME280;64007;50.632;13.700;2023-07-30T04:59:28;97508.16;;;15.52;100.00
75425;BME280;64007;50.632;13.700;2023-07-30T05:01:53;97504.84;;;15.58;100.00
75425;BME280;64007;50.632;13.700;2023-07-30T05:04:21;97504.84;;;15.58;100.00
75425;BME280;64007;50.632;13.700;2023-07-30T05:06:46;97512.22;;;15.64;100.00
75425;BME280;64007;50.632;13.700;2023-07-30T05:09:12;97518.41;;;15.73;100.00
75425;BME280;64007;50.632;13.700;2023-07-30T05:11:41;97512.84;;;15.99;100.00
75425;BME280;64007;50.632;13.700;2023-07-30T05:14:06;97511.50;;;16.11;100.00
75425;BME280;64007;50.632;13.700;2023-07-30T05:16:32;97527.09;;;16.08;100.00
75425;BME280;64007;50.632;13.700;2023-07-30T05:18:58;97524.09;;;16.03;100.00
75425;BME280;64007;50.632;13.700;2023-07-30T05:21:24;97516.53;;;16.06;100.00
75425;BME280;64007;50.632;13.700;2023-07-30T05:23:50;97518.53;;;16.12;100.00
75425;BME280;64007;50.632;13.700;2023-07-30T05:26:15;97522.56;;;16.16;100.00
75425;BME280;64007;50.632;13.700;2023-07-30T05:28:41;97520.38;;;16.20;100.00
75425;BME280;64007;50.632;13.700;2023-07-30T05:31:07;97522.53;;;16.24;100.00
75425;BME280;64007;50.632;13.700;2023-07-30T05:33:32;97536.59;;;16.43;100.00
75425;BME280;64007;50.632;13.700;2023-07-30T05:35:58;97532.16;;;16.66;100.00
75425;BME280;64007;50.632;13.700;2023-07-30T05:38:24;97536.47;;;16.75;100.00
75425;BME280;64007;50.632;13.700;2023-07-30T05:40:49;97529.44;;;16.74;100.00
75425;BME280;64007;50.632;13.700;2023-07-30T05:43:15;97534.84;;;16.58;100.00
75425;BME280;64007;50.632;13.700;2023-07-30T05:45:41;97544.41;;;16.60;100.00
75425;BME280;64007;50.632;13.700;2023-07-30T05:48:06;97540.56;;;16.55;100.00
75425;BME280;64007;50.632;13.700;2023-07-30T05:50:32;97531.19;;;16.51;100.00
75425;BME280;64007;50.632;13.700;2023-07-30T05:52:58;97541.25;;;16.49;100.00
75425;BME280;64007;50.632;13.700;2023-07-30T05:55:24;97538.75;;;16.47;100.00
75425;BME280;64007;50.632;13.700;2023-07-30T05:57:49;97538.06;;;16.53;100.00
75425;BME280;64007;50.632;13.700;2023-07-30T06:00:15;97530.44;;;16.65;100.00
75425;BME280;64007;50.632;13.700;2023-07-30T06:02:41;97534.25;;;16.87;100.00
75425;BME280;64007;50.632;13.700;2023-07-30T06:05:07;97528.06;;;16.86;100.00
75425;BME280;64007;50.632;13.700;2023-07-30T06:07:32;97532.06;;;16.90;100.00
75425;BME280;64007;50.632;13.700;2023-07-30T06:09:58;97532.06;;;16.90;100.00
75425;BME280;64007;50.632;13.700;2023-07-30T06:12:24;97530.13;;;17.07;100.00
75425;BME280;64007;50.632;13.700;2023-07-30T06:14:50;97533.16;;;17.04;100.00
75425;BME280;64007;50.632;13.700;2023-07-30T06:17:15;97533.69;;;17.00;100.00
75425;BME280;64007;50.632;13.700;2023-07-30T06:19:41;97541.69;;;17.08;100.00
75425;BME280;64007;50.632;13.700;2023-07-30T06:22:07;97539.31;;;17.13;100.00
75425;BME280;64007;50.632;13.700;2023-07-30T06:24:32;97540.59;;;17.25;100.00
75425;BME280;64007;50.632;13.700;2023-07-30T06:26:58;97545.56;;;17.36;100.00
75425;BME280;64007;50.632;13.700;2023-07-30T06:29:24;97540.91;;;17.53;100.00
75425;BME280;64007;50.632;13.700;2023-07-30T06:31:50;97543.69;;;17.68;100.00
75425;BME280;64007;50.632;13.700;2023-07-30T06:34:15;97541.41;;;17.79;100.00
75425;BME280;64007;50.632;13.700;2023-07-30T06:36:41;97543.38;;;17.85;100.00
75425;BME280;64007;50.632;13.700;2023-07-30T06:39:08;97540.78;;;17.92;100.00
75425;BME280;64007;50.632;13.700;2023-07-30T06:41:33;97543.47;;;17.92;100.00
75425;BME280;64007;50.632;13.700;2023-07-30T06:43:59;97544.72;;;18.04;100.00
75425;BME280;64007;50.632;13.700;2023-07-30T06:46:25;97539.09;;;18.14;100.00
75425;BME280;64007;50.632;13.700;2023-07-30T06:48:50;97539.84;;;18.37;100.00
75425;BME280;64007;50.632;13.700;2023-07-30T06:51:19;97543.81;;;18.27;100.00
75425;BME280;64007;50.632;13.700;2023-07-30T06:53:45;97534.25;;;18.24;100.00
75425;BME280;64007;50.632;13.700;2023-07-30T06:56:11;97538.28;;;18.43;100.00
75425;BME280;64007;50.632;13.700;2023-07-30T06:58:37;97543.59;;;18.66;100.00
75425;BME280;64007;50.632;13.700;2023-07-30T07:01:02;97553.25;;;18.90;100.00
75425;BME280;64007;50.632;13.700;2023-07-30T07:03:28;97551.59;;;18.89;100.00
75425;BME280;64007;50.632;13.700;2023-07-30T07:05:54;97546.66;;;18.92;100.00
75425;BME280;64007;50.632;13.700;2023-07-30T07:08:21;97550.56;;;18.90;100.00
75425;BME280;64007;50.632;13.700;2023-07-30T07:10:47;97553.16;;;18.68;100.00
75425;BME280;64007;50.632;13.700;2023-07-30T07:13:13;97555.56;;;18.63;100.00
75425;BME280;64007;50.632;13.700;2023-07-30T07:15:41;97571.44;;;18.58;100.00
75425;BME280;64007;50.632;13.700;2023-07-30T07:18:07;97574.13;;;18.58;100.00
75425;BME280;64007;50.632;13.700;2023-07-30T07:20:33;97572.44;;;18.57;100.00
75425;BME280;64007;50.632;13.700;2023-07-30T07:22:58;97572.25;;;18.59;100.00
75425;BME280;64007;50.632;13.700;2023-07-30T07:25:24;97584.09;;;18.35;100.00
75425;BME280;64007;50.632;13.700;2023-07-30T07:27:50;97584.38;;;18.40;100.00
75425;BME280;64007;50.632;13.700;2023-07-30T07:30:16;97582.28;;;18.50;100.00
75425;BME280;64007;50.632;13.700;2023-07-30T07:32:42;97578.03;;;18.56;100.00
75425;BME280;64007;50.632;13.700;2023-07-30T07:35:08;97567.00;;;18.65;100.00
75425;BME280;64007;50.632;13.700;2023-07-30T07:37:34;97562.63;;;18.94;100.00
75425;BME280;64007;50.632;13.700;2023-07-30T07:39:59;97561.06;;;18.85;100.00
75425;BME280;64007;50.632;13.700;2023-07-30T07:42:25;97572.56;;;18.93;100.00
75425;BME280;64007;50.632;13.700;2023-07-30T07:44:51;97570.31;;;19.12;100.00
75425;BME280;64007;50.632;13.700;2023-07-30T07:47:17;97575.19;;;19.37;100.00
75425;BME280;64007;50.632;13.700;2023-07-30T07:49:43;97586.28;;;19.49;100.00
75425;BME280;64007;50.632;13.700;2023-07-30T07:52:08;97584.69;;;19.69;100.00
75425;BME280;64007;50.632;13.700;2023-07-30T07:54:34;97581.53;;;19.87;100.00
75425;BME280;64007;50.632;13.700;2023-07-30T07:57:00;97580.66;;;20.01;100.00
75425;BME280;64007;50.632;13.700;2023-07-30T07:59:26;97578.00;;;20.08;100.00
75425;BME280;64007;50.632;13.700;2023-07-30T08:01:53;97577.94;;;20.01;100.00
75425;BME280;64007;50.632;13.700;2023-07-30T08:04:19;97580.50;;;20.10;100.00
75425;BME280;64007;50.632;13.700;2023-07-30T08:06:47;97573.50;;;20.15;100.00
75425;BME280;64007;50.632;13.700;2023-07-30T08:09:12;97576.72;;;20.32;100.00
75425;BME280;64007;50.632;13.700;2023-07-30T08:11:38;97578.34;;;20.48;100.00
75425;BME280;64007;50.632;13.700;2023-07-30T08:14:04;97582.19;;;20.67;100.00
75425;BME280;64007;50.632;13.700;2023-07-30T08:16:30;97578.06;;;20.71;100.00
75425;BME280;64007;50.632;13.700;2023-07-30T08:18:55;97572.75;;;20.84;100.00
75425;BME280;64007;50.632;13.700;2023-07-30T08:21:21;97572.25;;;20.74;100.00
75425;BME280;64007;50.632;13.700;2023-07-30T08:23:47;97566.06;;;20.80;100.00
75425;BME280;64007;50.632;13.700;2023-07-30T08:26:13;97566.25;;;20.78;100.00
75425;BME280;64007;50.632;13.700;2023-07-30T08:28:38;97570.44;;;20.81;100.00
75425;BME280;64007;50.632;13.700;2023-07-30T08:31:05;97563.84;;;20.90;100.00
75425;BME280;64007;50.632;13.700;2023-07-30T08:33:31;97568.69;;;21.08;100.00
75425;BME280;64007;50.632;13.700;2023-07-30T08:35:58;97558.22;;;21.26;97.51
75425;BME280;64007;50.632;13.700;2023-07-30T08:38:24;97557.59;;;21.31;98.42
75425;BME280;64007;50.632;13.700;2023-07-30T08:40:50;97561.75;;;21.26;97.44
75425;BME280;64007;50.632;13.700;2023-07-30T08:43:17;97564.50;;;21.40;100.00
75425;BME280;64007;50.632;13.700;2023-07-30T08:45:43;97568.53;;;21.77;93.96
75425;BME280;64007;50.632;13.700;2023-07-30T08:48:08;97566.03;;;21.75;91.40
75425;BME280;64007;50.632;13.700;2023-07-30T08:50:35;97565.63;;;21.78;92.38
75425;BME280;64007;50.632;13.700;2023-07-30T08:53:02;97559.19;;;21.79;94.68
75425;BME280;64007;50.632;13.700;2023-07-30T08:55:29;97557.94;;;21.88;97.01
75425;BME280;64007;50.632;13.700;2023-07-30T08:58:00;97563.13;;;21.70;97.73
75425;BME280;64007;50.632;13.700;2023-07-30T09:00:31;97569.78;;;21.74;99.00
75425;BME280;64007;50.632;13.700;2023-07-30T09:03:03;97568.53;;;21.77;97.88
75425;BME280;64007;50.632;13.700;2023-07-30T09:05:29;97568.13;;;21.73;98.58
75425;BME280;64007;50.632;13.700;2023-07-30T09:07:55;97567.72;;;21.76;97.24
75425;BME280;64007;50.632;13.700;2023-07-30T09:10:21;97561.47;;;21.82;98.94
75425;BME280;64007;50.632;13.700;2023-07-30T09:12:54;97568.13;;;21.73;97.71
75425;BME280;64007;50.632;13.700;2023-07-30T09:15:32;97571.03;;;21.78;95.82
75425;BME280;64007;50.632;13.700;2023-07-30T09:17:59;97570.44;;;21.89;98.18
75425;BME280;64007;50.632;13.700;2023-07-30T09:20:25;97567.78;;;22.16;94.51
75425;BME280;64007;50.632;13.700;2023-07-30T09:22:51;97563.19;;;22.43;97.26
75425;BME280;64007;50.632;13.700;2023-07-30T09:25:19;97552.72;;;22.86;90.71
75425;BME280;64007;50.632;13.700;2023-07-30T09:27:50;97555.50;;;23.18;88.05
75425;BME280;64007;50.632;13.700;2023-07-30T09:30:25;97563.41;;;23.26;86.11
75425;BME280;64007;50.632;13.700;2023-07-30T09:32:54;97556.34;;;23.25;88.64
75425;BME280;64007;50.632;13.700;2023-07-30T09:35:21;97554.44;;;23.19;88.02
75425;BME280;64007;50.632;13.700;2023-07-30T09:37:47;97550.22;;;23.36;86.20
75425;BME280;64007;50.632;13.700;2023-07-30T09:40:15;97545.72;;;23.61;91.08
75425;BME280;64007;50.632;13.700;2023-07-30T09:42:46;97537.63;;;23.86;83.29
75425;BME280;64007;50.632;13.700;2023-07-30T09:45:23;97537.50;;;24.06;85.77
75425;BME280;64007;50.632;13.700;2023-07-30T09:47:50;97540.88;;;24.51;88.76
75425;BME280;64007;50.632;13.700;2023-07-30T09:50:17;97533.13;;;24.91;80.31
75425;BME280;64007;50.632;13.700;2023-07-30T09:52:43;97531.31;;;24.85;78.19
75425;BME280;64007;50.632;13.700;2023-07-30T09:55:10;97535.38;;;24.58;79.22
75425;BME280;64007;50.632;13.700;2023-07-30T09:57:36;97536.09;;;24.22;82.95
75425;BME280;64007;50.632;13.700;2023-07-30T10:00:03;97545.09;;;23.91;85.87
75425;BME280;64007;50.632;13.700;2023-07-30T10:02:29;97531.28;;;23.67;85.05
75425;BME280;64007;50.632;13.700;2023-07-30T10:05:03;97535.56;;;23.82;86.53
75425;BME280;64007;50.632;13.700;2023-07-30T10:07:33;97535.34;;;23.45;84.72
75425;BME280;64007;50.632;13.700;2023-07-30T10:10:01;97529.44;;;23.55;87.75
75425;BME280;64007;50.632;13.700;2023-07-30T10:12:32;97540.34;;;23.48;88.57
75425;BME280;64007;50.632;13.700;2023-07-30T10:15:01;97529.88;;;23.52;88.38
75425;BME280;64007;50.632;13.700;2023-07-30T10:17:27;97534.03;;;23.54;88.53
75425;BME280;64007;50.632;13.700;2023-07-30T10:19:54;97533.16;;;23.67;88.78
75425;BME280;64007;50.632;13.700;2023-07-30T10:22:23;97528.91;;;23.78;85.15
75425;BME280;64007;50.632;13.700;2023-07-30T10:25:00;97521.47;;;23.66;81.54
75425;BME280;64007;50.632;13.700;2023-07-30T10:27:35;97528.59;;;23.61;82.85
75425;BME280;64007;50.632;13.700;2023-07-30T10:33:02;97531.06;;;23.69;83.10
75425;BME280;64007;50.632;13.700;2023-07-30T10:35:41;97534.69;;;23.88;83.56
75425;BME280;64007;50.632;13.700;2023-07-30T10:38:30;97530.63;;;24.28;83.75
75425;BME280;64007;50.632;13.700;2023-07-30T10:41:14;97522.28;;;24.23;80.58
75425;BME280;64007;50.632;13.700;2023-07-30T10:43:46;97529.69;;;23.85;80.69
75425;BME280;64007;50.632;13.700;2023-07-30T10:46:13;97530.25;;;23.68;84.41
75425;BME280;64007;50.632;13.700;2023-07-30T10:48:40;97524.59;;;23.95;84.16
75425;BME280;64007;50.632;13.700;2023-07-30T10:51:15;97525.53;;;23.82;82.02
75425;BME280;64007;50.632;13.700;2023-07-30T10:53:49;97530.84;;;23.70;79.61
75425;BME280;64007;50.632;13.700;2023-07-30T10:56:17;97525.06;;;23.54;84.32
75425;BME280;64007;50.632;13.700;2023-07-30T10:58:49;97527.47;;;23.37;86.26
75425;BME280;64007;50.632;13.700;2023-07-30T11:01:16;97524.50;;;23.45;87.86
75425;BME280;64007;50.632;13.700;2023-07-30T11:03:41;97519.84;;;23.52;94.49
75425;BME280;64007;50.632;13.700;2023-07-30T11:06:07;97536.00;;;23.79;95.86
75425;BME280;64007;50.632;13.700;2023-07-30T11:08:38;97530.66;;;24.22;86.88
75425;BME280;64007;50.632;13.700;2023-07-30T11:11:05;97526.47;;;24.69;92.70
75425;BME280;64007;50.632;13.700;2023-07-30T11:13:44;97522.56;;;24.83;90.07
75425;BME280;64007;50.632;13.700;2023-07-30T11:16:12;97524.34;;;24.71;88.66
75425;BME280;64007;50.632;13.700;2023-07-30T11:18:39;97522.59;;;24.58;86.35
75425;BME280;64007;50.632;13.700;2023-07-30T11:21:08;97521.09;;;24.62;87.21
75425;BME280;64007;50.632;13.700;2023-07-30T11:23:35;97517.09;;;25.20;95.12
75425;BME280;64007;50.632;13.700;2023-07-30T11:26:02;97504.22;;;25.45;81.54
75425;BME280;64007;50.632;13.700;2023-07-30T11:28:33;97514.28;;;25.75;71.66
75425;BME280;64007;50.632;13.700;2023-07-30T11:31:19;97512.50;;;26.57;76.16
75425;BME280;64007;50.632;13.700;2023-07-30T11:33:48;97515.50;;;27.19;66.01
75425;BME280;64007;50.632;13.700;2023-07-30T11:36:16;97521.19;;;27.29;63.12
75425;BME280;64007;50.632;13.700;2023-07-30T11:38:43;97517.25;;;27.37;64.17
75425;BME280;64007;50.632;13.700;2023-07-30T11:41:11;97518.38;;;27.81;67.46
75425;BME280;64007;50.632;13.700;2023-07-30T11:43:38;97513.78;;;28.49;71.49
75425;BME280;64007;50.632;13.700;2023-07-30T11:48:33;97509.88;;;29.44;66.21
75425;BME280;64007;50.632;13.700;2023-07-30T11:51:00;97489.72;;;29.82;60.32
75425;BME280;64007;50.632;13.700;2023-07-30T11:53:49;97487.03;;;30.14;52.05
75425;BME280;64007;50.632;13.700;2023-07-30T11:56:24;97496.13;;;30.56;53.30
75425;BME280;64007;50.632;13.700;2023-07-30T11:58:51;97492.44;;;30.41;50.14
75425;BME280;64007;50.632;13.700;2023-07-30T12:01:17;97496.31;;;30.08;49.50
75425;BME280;64007;50.632;13.700;2023-07-30T12:03:44;97497.59;;;29.73;51.59
75425;BME280;64007;50.632;13.700;2023-07-30T12:06:11;97485.69;;;29.14;49.88
75425;BME280;64007;50.632;13.700;2023-07-30T12:08:36;97480.47;;;28.74;53.00
75425;BME280;64007;50.632;13.700;2023-07-30T12:11:04;97481.16;;;28.42;53.31
75425;BME280;64007;50.632;13.700;2023-07-30T12:13:31;97477.22;;;28.38;52.92
75425;BME280;64007;50.632;13.700;2023-07-30T12:15:57;97475.25;;;28.89;49.77
75425;BME280;64007;50.632;13.700;2023-07-30T12:18:25;97462.38;;;29.11;48.42
75425;BME280;64007;50.632;13.700;2023-07-30T12:20:52;97460.31;;;28.58;47.79
75425;BME280;64007;50.632;13.700;2023-07-30T12:23:19;97456.47;;;28.03;50.01
75425;BME280;64007;50.632;13.700;2023-07-30T12:25:45;97456.09;;;27.66;51.64
75425;BME280;64007;50.632;13.700;2023-07-30T12:28:12;97455.19;;;27.32;52.06
75425;BME280;64007;50.632;13.700;2023-07-30T12:30:38;97454.44;;;26.97;51.00
75425;BME280;64007;50.632;13.700;2023-07-30T12:33:04;97456.84;;;26.81;53.44
75425;BME280;64007;50.632;13.700;2023-07-30T12:35:30;97459.94;;;26.85;54.78
75425;BME280;64007;50.632;13.700;2023-07-30T12:37:57;97459.47;;;27.28;53.74
75425;BME280;64007;50.632;13.700;2023-07-30T12:40:23;97465.50;;;27.02;53.53
75425;BME280;64007;50.632;13.700;2023-07-30T12:42:49;97459.50;;;27.16;54.64
75425;BME280;64007;50.632;13.700;2023-07-30T12:45:16;97460.56;;;27.44;53.41
75425;BME280;64007;50.632;13.700;2023-07-30T12:47:42;97452.78;;;27.81;49.49
75425;BME280;64007;50.632;13.700;2023-07-30T12:50:08;97453.97;;;27.68;50.58